Willimantic, Connecticut
Current Conditions -  °F | °C
As of 7:05 AM on Saturday 20 Dec 2014 (Local Time) from KIJD Reporting Station
Overcast Overcast  
Wind Chill: 26°   Ceiling: 2900
Heat Index: 26°   Visibility: 10mi
Dew Point: 21°   Wind: 0mph
Humidity: 81%   Direction: NA
Pressure: 30.26"   Gusts: NA
Location:  41.71°N, 72.21°W
Report Text: KIJD 201205Z AUTO 00000KT 10SM OVC029 M03/M06 A3026 RMK AO2 T10331061
Loading
Personal Weather Stations






























Interactive Weather Map New forecast layout! Learn more

10-Day Weather Forecast

Advertisements
Track Severe Weather on mobile